Mackinaw City, MI (49701)

10:47 AM EDT on October 01, 2014 (GMT -0400)
NOS_NWLON Mackinaw City, MI NWLON | Change Station
CLOSE
Current Station
Personal Weather Station
Location: Mackinaw City, MI
Elevation: 176 m
Nearby Weather Stations

Elev 176 m 45.78 °N, 84.73 °W | Updated 206 days ago

Cloudy
Cloudy
14 °C
Feels Like 14 °C
N
16
Wind Variable Wind from ESE
Gusts 22 km/h

Today
High -- | Low -- °C
--% Chance of Precip.
Yesterday
High -- | Low -- °C
Precip. -- mm
7:37 AM 7:19 PM
Waxing Crescent, 48% visible
Pressure 1019 hPa
Visibility 16.1 kilometers
Clouds Scattered Clouds 182 m
Overcast 396 m
Dew Point 13 °C
Humidity 92%
Rainfall -253975 mm
Snow Depth Not available.
UV 1 out of 12
Pollen 1.80 out of 12
Ozone Good
PM2.5 Good
Flu Activity Not available.
METAR KSLH 011356Z AUTO 13006KT 10SM SCT006 OVC013 12/11 A3009 RMK AO2 T01240118

More Conditions Fewer Conditions

Pressure 1019 hPa
Visibility 16.1 kilometers
Clouds Scattered Clouds 182 m
Overcast 396 m
Dew Point 13 °C
Humidity 92%
Rainfall -253975 mm
Snow Depth Not available.
UV 1 out of 12
Pollen 1.80 out of 12
Ozone Good
PM2.5 Good
Flu Activity Not available.
METAR KSLH 011356Z AUTO 13006KT 10SM SCT006 OVC013 12/11 A3009 RMK AO2 T01240118

More Conditions Fewer Conditions

Nowcast | as of 10:00 am EDT on October 1, 2014

At 11 am...cloudy. Patchy drizzle. Temperature 56. East winds 6 mph. At 1 PM...cloudy. Temperature 60. Southeast winds 7 mph. At 3 PM...cloudy. Temperature 61. Southeast winds 7 mph. At 5 PM...cloudy. Temperature 61. Southeast winds 6 mph.

×

10-Day Weather Forecast

Almanac

Astronomy

Oct. 01, 2014 Rise Set
Actual Time 7:37 AM EDT 7:19 PM EDT
Civil Twilight 7:07 AM EDT 7:48 PM EDT
Nautical Twilight 6:33 AM EDT 8:23 PM EDT
Astronomical Twilight 5:57 AM EDT 8:58 PM EDT
Moon 2:50 PM EDT No Moon Set
Length of Visible Light 12h 41m
Length of Day
11h 41m
Tomorrow will be 3m 11s shorter.
Waxing Crescent, 48% of the Moon is Illuminated
Today
Waxing Crescent
Oct 1
First Quarter
Oct 8
Full
Oct 15
Last Quarter
Oct 23
New

Today's Extremes

State Highs State Lows

Community

WunderPhotos

Upload Photos

1,757,960 photos uploaded!

Nearby

Air Quality

  Air Quality AQ Index Pollutant
Yesterday Good
OZONE
Yesterday Good
PM2.5
Current Good
PM2.5
Current Good
OZONE
Wednesday Good
OZONE
Wednesday Good
PM2.5
Thursday Good
OZONE
Thursday Good
PM2.5
Friday Good
OZONE
Friday Good
PM2.5
Saturday Good
OZONE
Saturday Good
PM2.5

Snow Depth

Station Depth Elevation
No new snow has been reported.

Earthquake Activity

City Distance Mag. Time & Date
No recent earthquake activity has been reported nearby.
Minimum magnitude displayed is 2.5.

Coastal Water Temperatures

Place Temperature
Mackinaw City, MI 16.1 °C
Rock Cut, MI 13.3 °C
West Neebish, MI 13.9 °C
Little Rapids, MI 13.9 °C
S W Pier, MI 14.4 °C

Nearby Weather Stations